Integrity — WDC6925 — position and weather

sailwx.info

Track history (hours):
 
Tides and Currents Weather Stations Pressure Air Temp Water Temp Dewpoint Dewpoint Depression Visibility Wind Speed Wind Dir Waves Ship Positions

Integrity

Owner: TOTE Services, Inc., Jacksonville, FL. More information available from US FCC via Universal Licensing System and Coast Guard Vessel Documentation Center.

Last reported at 2018-Feb-20 09:46 UTC. Time now 2018-Feb-23 02:35 UTC.
Position N 27°04' W 079°50'.

Type: Ship. MMSI: 367063310.

Date/timePositionNaut miles runAvg speedWind from/ knotsBaromVisibWave heightAir tempDewpointWater temp
2018-Feb-20 09:46N 27°04' W 079°50'519.0
2018-Feb-20 09:31N 26°59' W 079°50'918.9
2018-Feb-20 09:01N 26°50' W 079°50'1418.6
2018-Feb-20 08:16N 26°36' W 079°50'518.8
2018-Feb-20 08:00N 26°31' W 079°50'918.8
2018-Feb-20 07:30N 26°22' W 079°50'1018.8
2018-Feb-20 07:00N 26°12' W 079°50'919.0
2018-Feb-20 06:30N 26°03' W 079°50'918.8
2018-Feb-20 06:01N 25°54' W 079°51'918.5
2018-Feb-20 05:31N 25°45' W 079°53'918.2
2018-Feb-20 05:00N 25°36' W 079°55'918.2
2018-Feb-20 04:30N 25°27' W 079°57'1318.4
2018-Feb-20 03:48N 25°14' W 080°01'63614.5
2018-Feb-18 08:04N 27°20' W 091°36'115.9
2018-Feb-18 07:59N 27°21' W 091°37'2015.9
2018-Feb-18 06:44N 27°31' W 091°56'515.7
2018-Feb-18 06:23N 27°34' W 092°02'1315.6
2018-Feb-18 05:32N 27°40' W 092°15'115.6
2018-Feb-18 05:30N 27°40' W 092°15'3515.7
2018-Feb-18 03:16N 28°03' W 092°45'516.4
2018-Feb-18 02:57N 28°08' W 092°49'716.2
2018-Feb-18 02:30N 28°13' W 092°54'815.8
2018-Feb-18 01:59N 28°18' W 093°02'715.8
2018-Feb-18 01:30N 28°22' W 093°09'816.1
2018-Feb-18 01:01N 28°27' W 093°16'816.2
2018-Feb-18 00:30N 28°31' W 093°24'816.6
2018-Feb-18 00:00N 28°36' W 093°31'816.4
2018-Feb-17 23:30N 28°41' W 093°39'816.2
2018-Feb-17 23:00N 28°46' W 093°47'816.0
2018-Feb-17 22:29N 28°51' W 093°54'816.0
2018-Feb-17 22:00N 28°55' W 094°01'816.1
2018-Feb-17 21:30N 28°60' W 094°09'816.0
2018-Feb-17 21:00N 29°04' W 094°16'3113.0
2018-Feb-17 18:39N 29°20' W 094°46'1 6.5
2018-Feb-17 18:29N 29°19' W 094°47'0 0.0
2018-Feb-17 07:47N 29°19' W 094°47'0 0.0
2018-Feb-17 07:26N 29°19' W 094°47'0 0.0
2018-Feb-17 06:21N 29°19' W 094°47'0 0.0
2018-Feb-17 06:00N 29°19' W 094°47'0 0.0
2018-Feb-17 05:25N 29°19' W 094°47'0 0.0
2018-Feb-17 05:00N 29°19' W 094°47'0 0.0
2018-Feb-17 04:30N 29°19' W 094°47'0 0.0
2018-Feb-17 04:00N 29°19' W 094°47'0 0.0
2018-Feb-17 03:30N 29°19' W 094°47'0 0.0
2018-Feb-17 02:59N 29°19' W 094°47'0 0.0
2018-Feb-17 02:29N 29°19' W 094°47'0 0.0
2018-Feb-17 02:00N 29°19' W 094°47'0 0.0
2018-Feb-17 01:30N 29°19' W 094°47'0 0.0
2018-Feb-17 01:00N 29°19' W 094°47'0 0.0
2018-Feb-17 00:30N 29°19' W 094°47'0 0.0
2018-Feb-16 23:58N 29°19' W 094°47'0 0.0
2018-Feb-16 23:30N 29°19' W 094°47'0 0.0
2018-Feb-16 23:00N 29°19' W 094°47'0 0.0
2018-Feb-16 22:30N 29°19' W 094°47'0 0.0
2018-Feb-16 22:00N 29°19' W 094°47'0 0.0
2018-Feb-16 21:17N 29°19' W 094°47'0 0.0
2018-Feb-16 20:47N 29°19' W 094°47'23 8.5
2018-Feb-16 18:01N 29°14' W 094°21'0 4.8
2018-Feb-16 18:00N 29°14' W 094°21'0 0.6
2018-Feb-16 17:25N 29°14' W 094°20'0 1.1
2018-Feb-16 16:58N 29°14' W 094°20'0 0.7
2018-Feb-16 16:23N 29°14' W 094°20'0 0.3
2018-Feb-16 15:59N 29°14' W 094°20'0 0.5
2018-Feb-16 15:29N 29°14' W 094°20'0 0.9
2018-Feb-16 14:57N 29°14' W 094°20'1 0.4
2018-Feb-16 13:15N 29°14' W 094°20'15 3.0
2018-Feb-16 08:11N 29°02' W 094°10'2 8.7
2018-Feb-16 07:56N 29°01' W 094°08'610.7
2018-Feb-16 07:22N 28°57' W 094°02'613.5
2018-Feb-16 06:56N 28°54' W 093°57'713.5
2018-Feb-16 06:26N 28°50' W 093°51'713.5
2018-Feb-16 05:54N 28°46' W 093°44'513.5
2018-Feb-16 05:30N 28°43' W 093°39'913.4
2018-Feb-16 04:51N 28°38' W 093°31'713.4
2018-Feb-16 04:20N 28°34' W 093°24'913.2
2018-Feb-16 03:39N 28°28' W 093°16'513.4
2018-Feb-16 03:15N 28°25' W 093°11'713.6
2018-Feb-16 02:46N 28°21' W 093°05'613.9
2018-Feb-16 02:20N 28°18' W 092°60'613.4
2018-Feb-16 01:55N 28°14' W 092°54'2013.3
2018-Feb-16 00:26N 27°59' W 092°41'69513.9
2018-Feb-13 22:36N 25°13' W 080°06'215.1
2018-Feb-13 22:30N 25°14' W 080°06'714.7
2018-Feb-13 22:00N 25°21' W 080°03'714.3
2018-Feb-13 21:30N 25°28' W 080°02'714.0
2018-Feb-13 21:00N 25°35' W 080°01'713.8
2018-Feb-13 20:29N 25°42' W 080°01'713.8
2018-Feb-13 20:00N 25°49' W 079°60'713.7
2018-Feb-13 19:30N 25°56' W 079°59'713.7
2018-Feb-13 19:00N 26°02' W 079°59'612.6
2018-Feb-13 18:30N 26°08' W 080°02'713.8
2018-Feb-13 18:01N 26°15' W 080°01'815.1
2018-Feb-13 17:30N 26°22' W 080°00'714.9
2018-Feb-13 17:00N 26°30' W 079°60'714.5
2018-Feb-13 16:30N 26°37' W 079°59'814.2
2018-Feb-13 15:55N 26°45' W 079°58'613.7
2018-Feb-13 15:30N 26°51' W 079°58'713.2
2018-Feb-13 15:00N 26°58' W 079°58'  
Track history (hours):
 
Tides and Currents Weather Stations Pressure Air Temp Water Temp Dewpoint Dewpoint Depression Visibility Wind Speed Wind Dir Waves Ship Positions

Integrity

Owner: TOTE Services, Inc., Jacksonville, FL. More information available from US FCC via Universal Licensing System and Coast Guard Vessel Documentation Center.

Last reported at 2018-Feb-20 09:46 UTC. Time now 2018-Feb-23 02:35 UTC.
Position N 27°04' W 079°50'.

Type: Ship. MMSI: 367063310.

Date/timePositionNaut miles runAvg speedWind from/ knotsBaromVisibWave heightAir tempDewpointWater temp
2018-Feb-20 09:46N 27°04' W 079°50'519.0
2018-Feb-20 09:31N 26°59' W 079°50'918.9
2018-Feb-20 09:01N 26°50' W 079°50'1418.6
2018-Feb-20 08:16N 26°36' W 079°50'518.8
2018-Feb-20 08:00N 26°31' W 079°50'918.8
2018-Feb-20 07:30N 26°22' W 079°50'1018.8
2018-Feb-20 07:00N 26°12' W 079°50'919.0
2018-Feb-20 06:30N 26°03' W 079°50'918.8
2018-Feb-20 06:01N 25°54' W 079°51'918.5
2018-Feb-20 05:31N 25°45' W 079°53'918.2
2018-Feb-20 05:00N 25°36' W 079°55'918.2
2018-Feb-20 04:30N 25°27' W 079°57'1318.4
2018-Feb-20 03:48N 25°14' W 080°01'63614.5
2018-Feb-18 08:04N 27°20' W 091°36'115.9
2018-Feb-18 07:59N 27°21' W 091°37'2015.9
2018-Feb-18 06:44N 27°31' W 091°56'515.7
2018-Feb-18 06:23N 27°34' W 092°02'1315.6
2018-Feb-18 05:32N 27°40' W 092°15'115.6
2018-Feb-18 05:30N 27°40' W 092°15'3515.7
2018-Feb-18 03:16N 28°03' W 092°45'516.4
2018-Feb-18 02:57N 28°08' W 092°49'716.2
2018-Feb-18 02:30N 28°13' W 092°54'815.8
2018-Feb-18 01:59N 28°18' W 093°02'715.8
2018-Feb-18 01:30N 28°22' W 093°09'816.1
2018-Feb-18 01:01N 28°27' W 093°16'816.2
2018-Feb-18 00:30N 28°31' W 093°24'816.6
2018-Feb-18 00:00N 28°36' W 093°31'816.4
2018-Feb-17 23:30N 28°41' W 093°39'816.2
2018-Feb-17 23:00N 28°46' W 093°47'816.0
2018-Feb-17 22:29N 28°51' W 093°54'816.0
2018-Feb-17 22:00N 28°55' W 094°01'816.1
2018-Feb-17 21:30N 28°60' W 094°09'816.0
2018-Feb-17 21:00N 29°04' W 094°16'3113.0
2018-Feb-17 18:39N 29°20' W 094°46'1 6.5
2018-Feb-17 18:29N 29°19' W 094°47'0 0.0
2018-Feb-17 07:47N 29°19' W 094°47'0 0.0
2018-Feb-17 07:26N 29°19' W 094°47'0 0.0
2018-Feb-17 06:21N 29°19' W 094°47'0 0.0
2018-Feb-17 06:00N 29°19' W 094°47'0 0.0
2018-Feb-17 05:25N 29°19' W 094°47'0 0.0
2018-Feb-17 05:00N 29°19' W 094°47'0 0.0
2018-Feb-17 04:30N 29°19' W 094°47'0 0.0
2018-Feb-17 04:00N 29°19' W 094°47'0 0.0
2018-Feb-17 03:30N 29°19' W 094°47'0 0.0
2018-Feb-17 02:59N 29°19' W 094°47'0 0.0
2018-Feb-17 02:29N 29°19' W 094°47'0 0.0
2018-Feb-17 02:00N 29°19' W 094°47'0 0.0
2018-Feb-17 01:30N 29°19' W 094°47'0 0.0
2018-Feb-17 01:00N 29°19' W 094°47'0 0.0
2018-Feb-17 00:30N 29°19' W 094°47'0 0.0
2018-Feb-16 23:58N 29°19' W 094°47'0 0.0
2018-Feb-16 23:30N 29°19' W 094°47'0 0.0
2018-Feb-16 23:00N 29°19' W 094°47'0 0.0
2018-Feb-16 22:30N 29°19' W 094°47'0 0.0
2018-Feb-16 22:00N 29°19' W 094°47'0 0.0
2018-Feb-16 21:17N 29°19' W 094°47'0 0.0
2018-Feb-16 20:47N 29°19' W 094°47'23 8.5
2018-Feb-16 18:01N 29°14' W 094°21'0 4.8
2018-Feb-16 18:00N 29°14' W 094°21'0 0.6
2018-Feb-16 17:25N 29°14' W 094°20'0 1.1
2018-Feb-16 16:58N 29°14' W 094°20'0 0.7
2018-Feb-16 16:23N 29°14' W 094°20'0 0.3
2018-Feb-16 15:59N 29°14' W 094°20'0 0.5
2018-Feb-16 15:29N 29°14' W 094°20'0 0.9
2018-Feb-16 14:57N 29°14' W 094°20'1 0.4
2018-Feb-16 13:15N 29°14' W 094°20'15 3.0
2018-Feb-16 08:11N 29°02' W 094°10'2 8.7
2018-Feb-16 07:56N 29°01' W 094°08'610.7
2018-Feb-16 07:22N 28°57' W 094°02'613.5
2018-Feb-16 06:56N 28°54' W 093°57'713.5
2018-Feb-16 06:26N 28°50' W 093°51'713.5
2018-Feb-16 05:54N 28°46' W 093°44'513.5
2018-Feb-16 05:30N 28°43' W 093°39'913.4
2018-Feb-16 04:51N 28°38' W 093°31'713.4
2018-Feb-16 04:20N 28°34' W 093°24'913.2
2018-Feb-16 03:39N 28°28' W 093°16'513.4
2018-Feb-16 03:15N 28°25' W 093°11'713.6
2018-Feb-16 02:46N 28°21' W 093°05'613.9
2018-Feb-16 02:20N 28°18' W 092°60'613.4
2018-Feb-16 01:55N 28°14' W 092°54'2013.3
2018-Feb-16 00:26N 27°59' W 092°41'69513.9
2018-Feb-13 22:36N 25°13' W 080°06'215.1
2018-Feb-13 22:30N 25°14' W 080°06'714.7
2018-Feb-13 22:00N 25°21' W 080°03'714.3
2018-Feb-13 21:30N 25°28' W 080°02'714.0
2018-Feb-13 21:00N 25°35' W 080°01'713.8
2018-Feb-13 20:29N 25°42' W 080°01'713.8
2018-Feb-13 20:00N 25°49' W 079°60'713.7
2018-Feb-13 19:30N 25°56' W 079°59'713.7
2018-Feb-13 19:00N 26°02' W 079°59'612.6
2018-Feb-13 18:30N 26°08' W 080°02'713.8
2018-Feb-13 18:01N 26°15' W 080°01'815.1
2018-Feb-13 17:30N 26°22' W 080°00'714.9
2018-Feb-13 17:00N 26°30' W 079°60'714.5
2018-Feb-13 16:30N 26°37' W 079°59'814.2
2018-Feb-13 15:55N 26°45' W 079°58'613.7
2018-Feb-13 15:30N 26°51' W 079°58'713.2
2018-Feb-13 15:00N 26°58' W 079°58'  

Dump ship's entire track history